createdAt,value
2019-05-16T18:45:18.911Z,64.5
2019-05-16T18:46:18.856Z,64.47
2019-05-16T18:47:18.882Z,65.81
2019-05-16T18:48:19.117Z,65.81
2019-05-16T18:49:18.876Z,65.71
2019-05-16T18:50:20.574Z,65.55
2019-05-16T18:51:18.853Z,64.56
2019-05-16T18:52:19.832Z,65.04
2019-05-16T18:53:20.312Z,65.23
2019-05-16T18:54:19.592Z,65.42
2019-05-16T18:55:21.485Z,65.42
2019-05-16T18:56:19.375Z,65.04
2019-05-16T18:57:19.802Z,64.75
2019-05-16T18:58:20.451Z,65.33
2019-05-16T18:59:19.380Z,66.28
2019-05-16T19:00:20.334Z,66.38
2019-05-16T19:01:20.063Z,66.47
2019-05-16T19:02:20.371Z,66.67
2019-05-16T19:03:19.053Z,66.28
2019-05-16T19:04:20.079Z,66.09
2019-05-16T19:05:19.722Z,66.19
2019-05-16T19:06:19.516Z,66.57
2019-05-16T19:07:18.994Z,66.86
2019-05-16T19:08:18.794Z,66.67
2019-05-16T19:09:19.198Z,66.57
2019-05-16T19:10:20.090Z,66.76
2019-05-16T19:11:19.707Z,66.57
2019-05-16T19:12:19.471Z,66.57
2019-05-16T19:13:19.361Z,67.05
2019-05-16T19:14:19.412Z,67.24
2019-05-16T19:15:20.307Z,67.24
2019-05-16T19:16:19.218Z,66.76
2019-05-16T19:17:27.529Z,67.24
2019-05-16T19:18:19.544Z,67.24
2019-05-16T19:19:19.129Z,67.05
2019-05-16T19:20:19.706Z,67.24
2019-05-16T19:21:19.363Z,67.53
2019-05-16T19:22:19.559Z,67.43
2019-05-16T19:23:19.967Z,67.05
2019-05-16T19:24:18.758Z,66.86
2019-05-16T19:25:20.727Z,67.24
2019-05-16T19:26:19.205Z,67.24
2019-05-16T19:27:19.735Z,66.67
2019-05-16T19:28:18.753Z,66.86
2019-05-16T19:29:19.889Z,67.43
2019-05-16T19:30:18.999Z,67.14
2019-05-16T19:31:19.606Z,67.24
2019-05-16T19:32:19.652Z,67.24
2019-05-16T19:33:19.969Z,67.05
2019-05-16T19:34:18.985Z,67.05
2019-05-16T19:35:18.739Z,67.14
2019-05-16T19:36:19.013Z,67.11
2019-05-16T19:37:18.975Z,67.72
2019-05-16T19:38:19.482Z,67.34
2019-05-16T19:39:18.736Z,67.53
2019-05-16T19:40:19.665Z,66.96
2019-05-16T19:41:18.720Z,67.24
2019-05-16T19:42:19.547Z,67.63
2019-05-16T19:43:19.947Z,67.21
2019-05-16T19:44:19.342Z,67.24
2019-05-16T19:45:19.265Z,67.05
2019-05-16T19:46:18.956Z,67.21
2019-05-16T19:47:18.709Z,67.24
2019-05-16T19:48:19.953Z,66.86
2019-05-16T19:49:18.956Z,67.24
2019-05-16T19:50:18.948Z,67.21
2019-05-16T19:51:18.951Z,67.3
2019-05-16T19:52:18.954Z,67.49
2019-05-16T19:53:19.070Z,67.49
2019-05-16T19:54:19.029Z,67.43
2019-05-16T19:55:18.940Z,67.97
2019-05-16T19:56:19.990Z,68.07
2019-05-16T19:57:19.904Z,67.91
2019-05-16T19:58:18.686Z,67.88
2019-05-16T19:59:19.443Z,68.26
2019-05-16T20:00:19.671Z,68.45
2019-05-16T20:01:19.309Z,68.35
2019-05-16T20:02:18.849Z,68.16
2019-05-16T20:03:19.169Z,68.45
2019-05-16T20:04:20.933Z,68.93
2019-05-16T20:05:19.519Z,69.12
2019-05-16T20:06:19.366Z,69.21
2019-05-16T20:07:19.297Z,69.5
2019-05-16T20:08:20.030Z,69.41
2019-05-16T20:09:19.134Z,69.79
2019-05-16T20:10:19.396Z,69.6
2019-05-16T20:11:19.374Z,69.6
2019-05-16T20:12:19.410Z,69.6
2019-05-16T20:13:19.106Z,69.5
2019-05-16T20:14:21.735Z,69.6
2019-05-16T20:15:18.823Z,70.07
2019-05-16T20:16:20.947Z,70.46
2019-05-16T20:17:21.748Z,70.36
2019-05-16T20:18:20.944Z,70.46
2019-05-16T20:19:18.635Z,70.36
2019-05-16T20:20:20.889Z,70.75
2019-05-16T20:21:21.033Z,70.75
2019-05-16T20:22:18.859Z,70.36
2019-05-16T20:23:21.079Z,70.75
2019-05-16T20:24:19.201Z,70.27
2019-05-16T20:25:18.947Z,69.89
2019-05-16T20:26:20.590Z,70.07
2019-05-16T20:27:21.412Z,69.7
2019-05-16T20:28:20.715Z,69.5
2019-05-16T20:29:19.278Z,70.17
2019-05-16T20:30:19.573Z,70.17
2019-05-16T20:31:19.303Z,70.17
2019-05-16T20:32:19.364Z,70.56
2019-05-16T20:33:20.194Z,70.84
2019-05-16T20:34:20.076Z,71.28
2019-05-16T20:35:19.956Z,71.09
2019-05-16T20:36:19.816Z,71.28
2019-05-16T20:37:19.620Z,71.95
2019-05-16T20:38:19.784Z,72.91
2019-05-16T20:39:19.497Z,74.63
2019-05-16T20:40:19.763Z,74.91
2019-05-16T20:41:19.542Z,73.48
2019-05-16T20:42:19.567Z,71.95
2019-05-16T20:43:19.366Z,72.33
2019-05-16T20:44:19.899Z,73.86
2019-05-16T20:45:19.393Z,75.2
2019-05-16T20:46:19.465Z,74.24
2019-05-16T20:47:19.072Z,73.96
2019-05-16T20:48:20.676Z,73.58
2019-05-16T20:49:19.263Z,72.72
2019-05-16T20:50:19.434Z,73.1
2019-05-16T20:51:22.282Z,73.44
2019-05-16T20:52:19.653Z,73.48
2019-05-16T20:53:20.057Z,74.59
2019-05-16T20:54:19.987Z,74.59
2019-05-16T20:55:20.030Z,74.59
2019-05-16T20:56:19.631Z,75.83
2019-05-16T20:57:19.725Z,76.79
2019-05-16T20:58:18.834Z,76.79
2019-05-16T20:59:19.671Z,76.79
2019-05-16T21:00:19.994Z,76.79
2019-05-16T21:01:19.755Z,76.4
2019-05-16T21:02:18.822Z,76.6
2019-05-16T21:03:18.831Z,76.79
2019-05-16T21:04:19.669Z,77.17
2019-05-16T21:05:20.392Z,77.26
2019-05-16T21:06:19.557Z,77.03
2019-05-16T21:07:19.652Z,77.51
2019-05-16T21:08:19.687Z,77.89
2019-05-16T21:09:19.379Z,77.8
2019-05-16T21:10:19.199Z,77.99
2019-05-16T21:11:19.600Z,78.37
2019-05-16T21:12:19.723Z,78.85
2019-05-16T21:13:19.483Z,79.33
2019-05-16T21:14:18.875Z,80.24
2019-05-16T21:15:19.358Z,80.57
2019-05-16T21:16:20.534Z,80.33
2019-05-16T21:17:19.855Z,80.53
2019-05-16T21:18:19.152Z,80.91
2019-05-16T21:19:18.787Z,80.91
2019-05-16T21:20:20.057Z,81.1
2019-05-16T21:21:21.691Z,81.2
2019-05-16T21:22:21.658Z,80.81
2019-05-16T21:23:21.902Z,80.33
2019-05-16T21:24:18.741Z,80.81
2019-05-16T21:25:20.915Z,81.1
2019-05-16T21:26:18.445Z,81.2
2019-05-16T21:27:21.231Z,81.01
2019-05-16T21:28:21.722Z,80.81
2019-05-16T21:29:21.690Z,81.01
2019-05-16T21:30:21.525Z,80.81
2019-05-16T21:31:21.782Z,80.91
2019-05-16T21:32:18.690Z,81.01
2019-05-16T21:33:20.959Z,81.58
2019-05-16T21:34:21.274Z,81.2
2019-05-16T21:35:18.647Z,81.67
2019-05-16T21:36:21.572Z,81.58
2019-05-16T21:37:21.782Z,81.86
2019-05-16T21:38:19.023Z,82.43
2019-05-16T21:39:20.086Z,82.34
2019-05-16T21:40:19.446Z,83.25
2019-05-16T21:41:19.260Z,83.39
2019-05-16T21:42:19.047Z,83.58
2019-05-16T21:43:19.302Z,83.73
2019-05-16T21:44:19.563Z,84.2
2019-05-16T21:45:18.611Z,84.4
2019-05-16T21:46:20.155Z,85.35
2019-05-16T21:47:21.757Z,85.73
2019-05-16T21:48:21.698Z,85.06
2019-05-16T21:49:21.680Z,85.16
2019-05-16T21:50:21.160Z,85.16
2019-05-16T21:51:21.811Z,85.64
2019-05-16T21:52:18.581Z,85.45
2019-05-16T21:53:20.200Z,85.45
2019-05-16T21:54:18.348Z,85.35
2019-05-16T21:55:20.019Z,86.3
2019-05-16T21:56:20.140Z,86.02
2019-05-16T21:57:22.139Z,86.49
2019-05-16T21:58:18.566Z,86.4
2019-05-16T21:59:18.308Z,86.26
2019-05-16T22:00:18.331Z,86.36
2019-05-16T22:01:18.549Z,87.02
2019-05-16T22:02:19.293Z,87.4
2019-05-16T22:03:18.287Z,87.5
2019-05-16T22:04:18.544Z,87.6
2019-05-16T22:05:19.607Z,88.36
2019-05-16T22:06:19.104Z,88.07
2019-05-16T22:07:19.056Z,88.17
2019-05-16T22:08:19.258Z,89.12
2019-05-16T22:09:18.505Z,89.12
2019-05-16T22:10:18.504Z,89.31
2019-05-16T22:11:19.679Z,89.6
2019-05-16T22:12:19.560Z,90.17
2019-05-16T22:13:18.241Z,89.6
2019-05-16T22:14:19.259Z,91.03
2019-05-16T22:15:19.533Z,90.64
2019-05-16T22:16:20.096Z,91.13
2019-05-16T22:17:19.483Z,90.74
2019-05-16T22:18:18.865Z,90.93
2019-05-16T22:19:18.979Z,91.13
2019-05-16T22:20:19.012Z,91.03
2019-05-16T22:21:18.936Z,90.84
2019-05-16T22:22:18.952Z,91.03
2019-05-16T22:23:19.554Z,90.84
2019-05-16T22:24:19.690Z,91.13
2019-05-16T22:25:19.192Z,91.13
2019-05-16T22:26:19.262Z,90.79
2019-05-16T22:27:19.539Z,91.36
2019-05-16T22:28:19.457Z,90.98
2019-05-16T22:29:19.499Z,91.55
2019-05-16T22:30:18.903Z,92.03
2019-05-16T22:31:18.958Z,91.94
2019-05-16T22:32:18.922Z,92.79
2019-05-16T22:33:20.338Z,92.69
2019-05-16T22:34:19.157Z,92.5
2019-05-16T22:35:19.234Z,92.79
2019-05-16T22:36:19.551Z,92.69
2019-05-16T22:37:19.406Z,93.55
2019-05-16T22:38:19.249Z,93.84
2019-05-16T22:39:19.763Z,94.41
2019-05-16T22:40:19.667Z,94.51
2019-05-16T22:41:19.706Z,95.17
2019-05-16T22:42:20.122Z,94.89
2019-05-16T22:43:19.824Z,95.27
2019-05-16T22:44:20.091Z,95.08
2019-05-16T22:45:20.111Z,95.08
2019-05-16T22:46:20.007Z,95.17
2019-05-16T22:47:19.623Z,95.08
2019-05-16T22:48:19.779Z,95.08
2019-05-16T22:49:19.165Z,95.17
2019-05-16T22:50:20.172Z,94.98
2019-05-16T22:51:18.736Z,95.17
2019-05-16T22:52:19.699Z,95.84
2019-05-16T22:53:19.458Z,95.65
2019-05-16T22:54:19.648Z,95.94
2019-05-16T22:55:19.480Z,96.03
2019-05-16T22:56:19.840Z,96.12
2019-05-16T22:57:19.808Z,95.94
2019-05-16T22:58:18.840Z,96.12
2019-05-16T22:59:18.872Z,96.12
2019-05-16T23:00:19.349Z,95.65
2019-05-16T23:01:20.126Z,95.94
2019-05-16T23:02:19.281Z,96.12
2019-05-16T23:03:19.900Z,96.36
2019-05-16T23:04:19.231Z,96.55
2019-05-16T23:05:19.263Z,96.46
2019-05-16T23:06:18.722Z,96.55
2019-05-16T23:07:18.937Z,96.55
2019-05-16T23:08:18.878Z,97.13
2019-05-16T23:09:18.912Z,97.22
2019-05-16T23:10:19.108Z,97.31
2019-05-16T23:11:18.783Z,97.41
2019-05-16T23:12:19.843Z,98.08
2019-05-16T23:13:19.436Z,98.65
2019-05-16T23:14:19.503Z,98.55
2019-05-16T23:15:19.540Z,98.65
2019-05-16T23:16:19.649Z,98.27
2019-05-16T23:17:19.729Z,98.27
2019-05-16T23:18:21.079Z,98.55
2019-05-16T23:19:19.589Z,98.46
2019-05-16T23:20:19.535Z,98.55
2019-05-16T23:21:19.465Z,99.03
2019-05-16T23:22:19.182Z,98.65
2019-05-16T23:23:19.857Z,99.03
2019-05-16T23:24:19.711Z,99.32
2019-05-16T23:25:19.412Z,99.22
2019-05-16T23:26:19.195Z,99.22
2019-05-16T23:27:18.135Z,99.69
2019-05-16T23:28:19.205Z,99.6
2019-05-16T23:29:19.474Z,99.13
2019-05-16T23:30:18.959Z,99.03
2019-05-16T23:31:19.103Z,99.03
2019-05-16T23:32:18.107Z,99.99
2019-05-16T23:33:18.116Z,99.89
2019-05-16T23:34:18.715Z,99.99
2019-05-16T23:35:18.078Z,99.99
2019-05-16T23:36:19.915Z,99.98
2019-05-16T23:37:18.073Z,99.99
2019-05-16T23:38:22.138Z,99.99
2019-05-16T23:39:18.065Z,99.99
2019-05-16T23:40:18.063Z,99.99
2019-05-16T23:41:19.721Z,99.99
2019-05-16T23:42:18.059Z,99.99
2019-05-16T23:43:17.796Z,99.99
2019-05-16T23:44:19.114Z,99.99
2019-05-16T23:45:19.602Z,99.99
2019-05-16T23:46:18.932Z,99.99
2019-05-16T23:47:18.940Z,99.99
2019-05-16T23:48:18.884Z,99.99
2019-05-16T23:49:19.031Z,99.99
2019-05-16T23:50:19.658Z,99.99
2019-05-16T23:51:19.159Z,99.99
2019-05-16T23:52:19.279Z,99.99
2019-05-16T23:53:18.889Z,99.99
2019-05-16T23:54:19.759Z,99.99
2019-05-16T23:55:19.882Z,99.99
2019-05-16T23:56:19.188Z,99.99
2019-05-16T23:57:17.981Z,99.99
2019-05-16T23:58:17.950Z,99.99
2019-05-16T23:59:19.645Z,99.99
